Time;durP1;ratioP1;P1;durP2;ratioP2;P2;SDS_P1;SDS_P2;PMS_P1;PMS_P2;Temp;Humidity;BMP_temperature;BMP_pressure;BME280_temperature;BME280_humidity;BME280_pressure;Samples;Min_cycle;Max_cycle;Signal;HPM_P1;HPM_P2
2023/08/07 00:01:37;;;;;;;0.47;0.40;;;23.80;99.90;;;;;;5040811;28;20478;-61
2023/08/07 00:04:03;;;;;;;0.40;0.40;;;23.70;99.90;;;;;;5036877;28;20022;-61
2023/08/07 00:06:28;;;;;;;0.20;0.20;;;23.70;99.90;;;;;;5037155;28;20419;-61
2023/08/07 00:08:55;;;;;;;0.55;0.25;;;23.70;99.90;;;;;;5037703;28;20407;-60
2023/08/07 00:11:20;;;;;;;0.10;0.10;;;23.60;99.90;;;;;;5028730;28;20545;-61
2023/08/07 00:13:46;;;;;;;0.52;0.20;;;23.60;99.90;;;;;;5034718;28;20121;-61
2023/08/07 00:16:12;;;;;;;1.17;0.15;;;23.60;99.90;;;;;;5033884;28;20076;-61
2023/08/07 00:18:37;;;;;;;1.02;0.15;;;23.50;99.90;;;;;;5035514;28;20107;-61
2023/08/07 00:21:03;;;;;;;0.25;0.10;;;23.50;99.90;;;;;;5033889;28;20029;-61
2023/08/07 00:23:29;;;;;;;0.40;0.30;;;23.50;99.90;;;;;;5037539;28;20041;-61
2023/08/07 00:25:54;;;;;;;0.30;0.20;;;23.60;99.90;;;;;;5035083;28;20066;-61
2023/08/07 00:28:20;;;;;;;0.20;0.20;;;23.50;99.90;;;;;;5040125;28;20026;-61
2023/08/07 00:30:46;;;;;;;0.90;0.25;;;23.50;99.90;;;;;;5031514;28;20029;-61
2023/08/07 00:33:11;;;;;;;1.10;0.22;;;23.40;99.90;;;;;;5039186;28;20383;-61
2023/08/07 00:35:37;;;;;;;0.10;0.10;;;23.30;99.90;;;;;;5030810;28;20025;-61
2023/08/07 00:38:03;;;;;;;0.60;0.20;;;23.40;99.90;;;;;;5036118;28;20025;-61
2023/08/07 00:40:35;;;;;;;0.47;0.20;;;23.40;99.90;;;;;;5037669;28;20122;-61
2023/08/07 00:43:01;;;;;;;0.45;0.28;;;23.40;99.90;;;;;;5034246;28;20037;-60
2023/08/07 00:45:26;;;;;;;0.38;0.20;;;23.20;99.90;;;;;;5032877;28;20760;-61
2023/08/07 00:47:52;;;;;;;0.65;0.30;;;23.30;99.90;;;;;;5038530;28;20029;-61
2023/08/07 00:50:18;;;;;;;0.63;0.28;;;23.30;99.90;;;;;;5034753;28;20547;-60
2023/08/07 00:52:45;;;;;;;0.80;0.20;;;23.30;99.90;;;;;;5033951;28;20041;-60
2023/08/07 00:55:11;;;;;;;0.43;0.20;;;23.40;99.90;;;;;;5033795;28;20028;-60
2023/08/07 00:57:37;;;;;;;0.35;0.20;;;23.10;99.90;;;;;;5034596;28;20033;-60
2023/08/07 01:00:04;;;;;;;0.25;0.25;;;23.10;99.90;;;;;;5041155;28;20048;-60
2023/08/07 01:02:29;;;;;;;0.32;0.32;;;23.20;99.90;;;;;;5042940;28;20483;-61
2023/08/07 01:08:30;;;;;;;0.30;0.30;;;23.10;99.90;;;;;;5023296;28;20052;-61
2023/08/07 01:11:34;;;;;;;0.70;0.30;;;23.10;99.90;;;;;;5044039;28;20025;-61
2023/08/07 01:14:40;;;;;;;0.38;0.38;;;23.10;99.90;;;;;;5039419;28;20013;-61
2023/08/07 01:17:16;;;;;;;0.68;0.50;;;23.00;99.90;;;;;;5035149;28;20025;-61
2023/08/07 01:19:42;;;;;;;0.40;0.40;;;23.00;99.90;;;;;;5045545;28;20467;-61
2023/08/07 01:22:17;;;;;;;0.63;0.30;;;23.00;99.90;;;;;;5033595;28;20494;-61
2023/08/07 01:24:45;;;;;;;0.70;0.43;;;23.10;99.90;;;;;;5037124;28;20041;-61
2023/08/07 01:27:19;;;;;;;2.40;0.63;;;23.00;99.90;;;;;;5035549;28;20022;-61
2023/08/07 01:29:45;;;;;;;0.50;0.20;;;23.00;99.90;;;;;;5031683;28;20030;-61
2023/08/07 01:32:16;;;;;;;0.45;0.22;;;23.00;99.90;;;;;;5038658;28;20036;-61
2023/08/07 01:34:43;;;;;;;1.42;0.30;;;22.80;99.90;;;;;;5031547;28;20022;-61
2023/08/07 01:37:11;;;;;;;0.77;0.40;;;22.90;99.90;;;;;;5036477;28;20026;-61
2023/08/07 01:39:37;;;;;;;0.73;0.30;;;22.90;99.90;;;;;;5032753;28;20025;-61
2023/08/07 01:42:04;;;;;;;1.17;0.30;;;22.90;99.90;;;;;;5036064;28;20436;-61
2023/08/07 01:44:30;;;;;;;0.82;0.20;;;22.80;99.90;;;;;;5042734;28;20470;-61
2023/08/07 01:46:56;;;;;;;1.30;0.30;;;22.70;99.90;;;;;;5047853;28;20039;-61
2023/08/07 01:49:22;;;;;;;0.30;0.30;;;22.80;99.90;;;;;;5044942;28;20075;-61
2023/08/07 01:51:48;;;;;;;0.40;0.30;;;22.80;99.90;;;;;;5035047;28;20041;-61
2023/08/07 01:54:13;;;;;;;0.30;0.30;;;22.80;99.90;;;;;;5033048;28;20021;-61
2023/08/07 01:56:39;;;;;;;1.27;0.30;;;22.80;99.90;;;;;;5035786;28;20036;-61
2023/08/07 01:59:05;;;;;;;0.20;0.20;;;22.80;99.90;;;;;;5038671;28;20148;-61
2023/08/07 02:01:30;;;;;;;0.10;0.10;;;22.70;99.90;;;;;;5040491;28;20034;-61
2023/08/07 02:03:56;;;;;;;0.47;0.20;;;22.60;99.90;;;;;;5035165;28;20040;-61
2023/08/07 02:06:21;;;;;;;1.40;0.20;;;22.70;99.90;;;;;;5033486;28;20481;-61
2023/08/07 02:08:50;;;;;;;0.30;0.13;;;22.60;99.90;;;;;;5033467;28;20116;-61
2023/08/07 02:11:16;;;;;;;0.28;0.28;;;22.50;99.90;;;;;;5030866;28;20029;-61
2023/08/07 02:13:42;;;;;;;0.70;0.22;;;22.40;99.90;;;;;;5031475;28;20034;-61
2023/08/07 02:16:08;;;;;;;0.60;0.20;;;22.40;99.90;;;;;;5031587;28;20029;-61
2023/08/07 02:18:33;;;;;;;1.25;0.10;;;22.40;99.90;;;;;;5038076;28;20112;-61
2023/08/07 02:20:59;;;;;;;0.43;0.20;;;22.50;99.90;;;;;;5033933;28;20132;-51
2023/08/07 02:23:25;;;;;;;0.50;0.32;;;22.40;99.90;;;;;;5038012;28;20033;-57
2023/08/07 02:25:51;;;;;;;0.20;0.20;;;22.40;99.90;;;;;;5035209;28;20029;-59
2023/08/07 02:28:17;;;;;;;1.15;0.20;;;22.50;99.90;;;;;;5032883;28;20038;-60
2023/08/07 02:30:48;;;;;;;1.27;0.10;;;22.50;99.90;;;;;;5046212;28;20033;-59
2023/08/07 02:33:14;;;;;;;0.57;0.30;;;22.60;99.90;;;;;;5027650;28;20025;-59
2023/08/07 02:35:40;;;;;;;0.20;0.20;;;22.50;99.90;;;;;;5044772;28;20053;-59
2023/08/07 02:38:05;;;;;;;0.20;0.10;;;22.40;99.90;;;;;;5037415;28;20064;-59
2023/08/07 02:40:31;;;;;;;0.15;0.15;;;22.40;99.90;;;;;;5035687;28;20037;-59
2023/08/07 02:42:57;;;;;;;0.65;0.17;;;22.40;99.90;;;;;;5040606;28;20128;-59
2023/08/07 02:45:22;;;;;;;0.30;0.25;;;22.50;99.90;;;;;;5032876;28;20084;-59
2023/08/07 02:47:48;;;;;;;0.17;0.17;;;22.40;99.90;;;;;;5040055;28;20048;-60
2023/08/07 02:50:14;;;;;;;0.15;0.13;;;22.30;99.90;;;;;;5040515;28;20149;-59
2023/08/07 02:52:39;;;;;;;0.20;0.20;;;22.40;99.90;;;;;;5033177;28;20033;-60
2023/08/07 02:55:05;;;;;;;1.58;0.17;;;22.30;99.90;;;;;;5031843;28;20529;-59
2023/08/07 02:57:31;;;;;;;0.10;0.10;;;22.30;99.90;;;;;;5040286;28;20154;-60
2023/08/07 02:59:57;;;;;;;0.40;0.20;;;22.30;99.90;;;;;;5038045;28;20402;-59
2023/08/07 03:02:22;;;;;;;0.40;0.13;;;22.30;99.90;;;;;;5030629;28;20116;-59
2023/08/07 03:04:48;;;;;;;0.88;0.20;;;22.30;99.90;;;;;;5029111;28;20030;-59
2023/08/07 03:07:14;;;;;;;0.47;0.10;;;22.30;99.90;;;;;;5031201;28;20041;-59
2023/08/07 03:09:39;;;;;;;0.10;0.10;;;22.30;99.90;;;;;;5031853;28;20021;-59
2023/08/07 03:12:14;;;;;;;0.10;0.10;;;22.30;99.90;;;;;;5045778;28;20033;-59
2023/08/07 03:14:40;;;;;;;0.45;0.30;;;22.30;99.90;;;;;;5030936;28;20061;-59
2023/08/07 03:17:05;;;;;;;0.10;0.10;;;22.10;99.90;;;;;;5032129;28;20099;-59
2023/08/07 03:19:31;;;;;;;0.17;0.17;;;22.20;99.90;;;;;;5026879;28;20072;-59
2023/08/07 03:21:57;;;;;;;0.10;0.08;;;22.20;99.90;;;;;;5028741;28;20064;-59
2023/08/07 03:24:22;;;;;;;0.75;0.20;;;22.10;99.90;;;;;;5032395;28;20102;-59
2023/08/07 03:26:49;;;;;;;0.20;0.20;;;22.20;99.90;;;;;;5030854;28;20028;-60
2023/08/07 03:29:17;;;;;;;0.30;0.20;;;22.20;99.90;;;;;;5033762;28;20502;-59
2023/08/07 03:31:43;;;;;;;0.20;0.20;;;22.10;99.90;;;;;;5013053;28;20770;-58
2023/08/07 03:34:08;;;;;;;0.35;0.20;;;22.10;99.90;;;;;;5043571;28;20021;-58
2023/08/07 03:36:34;;;;;;;1.00;0.20;;;22.00;99.90;;;;;;5028328;28;20033;-58
2023/08/07 03:39:00;;;;;;;0.08;0.08;;;22.00;99.90;;;;;;5033274;28;20053;-59
2023/08/07 03:41:26;;;;;;;1.17;0.17;;;21.90;99.90;;;;;;5030060;28;20060;-58
2023/08/07 03:43:52;;;;;;;0.85;0.20;;;22.00;99.90;;;;;;5044546;28;20033;-58
2023/08/07 03:46:18;;;;;;;0.15;0.15;;;21.90;99.90;;;;;;5045870;28;20033;-58
2023/08/07 03:48:43;;;;;;;0.25;0.10;;;21.90;99.90;;;;;;5046708;28;20041;-58
2023/08/07 03:51:09;;;;;;;0.73;0.20;;;21.90;99.90;;;;;;5042788;28;20032;-59
2023/08/07 03:53:35;;;;;;;0.30;0.20;;;21.80;99.90;;;;;;5037906;28;20040;-58
2023/08/07 03:56:00;;;;;;;0.28;0.13;;;21.90;99.90;;;;;;5033778;28;20065;-58
2023/08/07 03:58:26;;;;;;;0.95;0.20;;;21.80;99.90;;;;;;5036989;28;20042;-58
2023/08/07 04:00:55;;;;;;;0.25;0.22;;;21.80;99.90;;;;;;5035959;28;20029;-59
2023/08/07 04:03:21;;;;;;;0.25;0.25;;;21.90;99.90;;;;;;5044431;28;20041;-58
2023/08/07 04:05:51;;;;;;;0.17;0.17;;;21.90;99.90;;;;;;5034898;28;20030;-59
2023/08/07 04:08:16;;;;;;;0.28;0.20;;;21.90;99.90;;;;;;5034608;28;20033;-59
2023/08/07 04:10:42;;;;;;;0.85;0.20;;;21.80;99.90;;;;;;5029986;28;20036;-58
2023/08/07 04:13:08;;;;;;;1.38;0.10;;;21.90;99.90;;;;;;5032381;28;20033;-58
2023/08/07 04:15:33;;;;;;;1.00;0.10;;;21.90;99.90;;;;;;5038495;28;20032;-58
2023/08/07 04:17:59;;;;;;;0.35;0.15;;;21.90;99.90;;;;;;5031561;28;20332;-58
2023/08/07 04:20:25;;;;;;;0.30;0.22;;;21.90;99.90;;;;;;5033215;28;20025;-58
2023/08/07 04:22:51;;;;;;;0.15;0.15;;;21.80;99.90;;;;;;5032032;28;20029;-58
2023/08/07 04:25:16;;;;;;;0.52;0.10;;;21.90;99.90;;;;;;5039571;28;20124;-58
2023/08/07 04:27:42;;;;;;;0.20;0.20;;;21.80;99.90;;;;;;5034572;28;20064;-58
2023/08/07 04:30:08;;;;;;;0.30;0.20;;;21.80;99.90;;;;;;5038748;28;20108;-58
2023/08/07 04:32:34;;;;;;;2.85;0.30;;;21.80;99.90;;;;;;5040849;28;20025;-58
2023/08/07 04:35:00;;;;;;;0.75;0.20;;;21.80;99.90;;;;;;5047694;28;20086;-59
2023/08/07 04:37:25;;;;;;;0.85;0.15;;;21.80;99.90;;;;;;5037616;28;20036;-58
2023/08/07 04:39:51;;;;;;;0.47;0.20;;;21.70;99.90;;;;;;5039934;28;20025;-59
2023/08/07 04:42:17;;;;;;;0.60;0.13;;;21.80;99.90;;;;;;5039856;28;20124;-58
2023/08/07 04:44:43;;;;;;;1.27;0.10;;;21.80;99.90;;;;;;5043516;28;20112;-59
2023/08/07 04:47:08;;;;;;;0.30;0.20;;;21.80;99.90;;;;;;5043983;28;20029;-58
2023/08/07 04:49:34;;;;;;;0.50;0.32;;;21.70;99.90;;;;;;5036071;28;20029;-58
2023/08/07 04:51:59;;;;;;;0.32;0.20;;;21.70;99.90;;;;;;5038767;28;20471;-59
2023/08/07 04:54:25;;;;;;;1.17;0.43;;;21.70;99.90;;;;;;5048544;28;20474;-58
2023/08/07 04:56:51;;;;;;;0.75;0.30;;;21.70;99.90;;;;;;5042261;28;20446;-58
2023/08/07 04:59:16;;;;;;;0.55;0.10;;;21.80;99.90;;;;;;5049857;28;20056;-58
2023/08/07 05:01:45;;;;;;;0.45;0.20;;;21.80;99.90;;;;;;5045871;28;20029;-58
2023/08/07 05:04:11;;;;;;;0.30;0.30;;;21.80;99.90;;;;;;5042249;28;20545;-58
2023/08/07 05:06:36;;;;;;;5.30;0.30;;;21.80;99.90;;;;;;5036199;28;20026;-59
2023/08/07 05:09:03;;;;;;;0.32;0.20;;;21.80;99.90;;;;;;5035649;28;20171;-58
2023/08/07 05:11:28;;;;;;;0.88;0.30;;;21.80;99.90;;;;;;5037304;28;20411;-58
2023/08/07 05:13:54;;;;;;;0.40;0.30;;;21.80;99.90;;;;;;5035506;28;20040;-60
2023/08/07 05:16:20;;;;;;;1.90;0.50;;;21.90;99.90;;;;;;5034519;28;20026;-60
2023/08/07 05:18:45;;;;;;;1.17;0.30;;;21.70;99.90;;;;;;5047213;28;20018;-61
2023/08/07 05:21:11;;;;;;;1.10;0.38;;;21.70;99.90;;;;;;5033857;28;20079;-59
2023/08/07 05:23:37;;;;;;;0.80;0.32;;;21.80;99.90;;;;;;5038561;28;20033;-58
2023/08/07 05:26:03;;;;;;;0.30;0.30;;;21.80;99.90;;;;;;5032250;28;20026;-58
2023/08/07 05:28:46;;;;;;;1.75;0.20;;;21.80;99.90;;;;;;5034356;28;20021;-58
2023/08/07 05:31:11;;;;;;;1.20;0.20;;;21.80;99.90;;;;;;5030547;28;20034;-58
2023/08/07 05:33:37;;;;;;;0.90;0.43;;;21.60;99.90;;;;;;5034360;28;20387;-58
2023/08/07 05:36:03;;;;;;;0.57;0.40;;;21.60;99.90;;;;;;5034354;28;20561;-59
2023/08/07 05:38:28;;;;;;;1.23;0.43;;;21.60;99.90;;;;;;5033444;28;20029;-59
2023/08/07 05:40:54;;;;;;;1.70;0.47;;;21.60;99.90;;;;;;5033182;28;20029;-59
2023/08/07 05:43:20;;;;;;;1.20;0.50;;;21.70;99.90;;;;;;5039838;28;20037;-54
2023/08/07 05:45:46;;;;;;;1.85;0.50;;;21.70;99.90;;;;;;5033421;28;20045;-54
2023/08/07 05:48:12;;;;;;;2.15;0.30;;;21.70;99.90;;;;;;5039444;28;20067;-50
2023/08/07 05:50:37;;;;;;;0.65;0.28;;;21.70;99.90;;;;;;5031925;28;20057;-56
2023/08/07 05:53:04;;;;;;;2.58;0.52;;;21.80;99.90;;;;;;5036926;28;20021;-54
2023/08/07 05:55:30;;;;;;;1.50;0.85;;;21.70;99.90;;;;;;5029478;28;20403;-51
2023/08/07 05:57:55;;;;;;;3.25;0.80;;;21.80;99.90;;;;;;5031359;28;20033;-55
2023/08/07 06:00:21;;;;;;;1.55;0.68;;;21.80;99.90;;;;;;5022976;28;20064;-52
2023/08/07 06:02:47;;;;;;;1.42;0.65;;;21.80;99.90;;;;;;5028177;28;20544;-51
2023/08/07 06:05:14;;;;;;;0.70;0.35;;;21.80;99.90;;;;;;5041586;28;20529;-55
2023/08/07 06:07:40;;;;;;;1.50;0.50;;;21.80;99.90;;;;;;5026117;28;20422;-55
2023/08/07 06:10:06;;;;;;;1.80;0.40;;;21.80;99.90;;;;;;5034463;28;20053;-53
2023/08/07 06:12:32;;;;;;;0.50;0.50;;;21.80;99.90;;;;;;5031905;28;20123;-52
2023/08/07 06:14:58;;;;;;;2.72;0.40;;;21.80;99.90;;;;;;5031961;28;20109;-55
2023/08/07 06:17:23;;;;;;;1.50;0.40;;;21.90;99.90;;;;;;5046159;28;20394;-49
2023/08/07 06:19:49;;;;;;;1.80;0.68;;;21.90;99.90;;;;;;5032717;28;20433;-51
2023/08/07 06:22:14;;;;;;;2.15;0.50;;;22.00;99.90;;;;;;5027580;28;20559;-55
2023/08/07 06:24:55;;;;;;;1.38;0.65;;;22.00;99.90;;;;;;5028542;28;20387;-55
2023/08/07 06:27:22;;;;;;;1.58;0.40;;;22.00;99.90;;;;;;5039905;28;20131;-52
2023/08/07 06:29:47;;;;;;;3.92;0.47;;;22.10;99.90;;;;;;5031923;28;20376;-53
2023/08/07 06:32:13;;;;;;;1.95;0.30;;;22.10;99.90;;;;;;5034696;28;20037;-56
2023/08/07 06:34:39;;;;;;;1.63;0.40;;;22.20;99.90;;;;;;5036158;28;20040;-55
2023/08/07 06:37:05;;;;;;;1.70;0.52;;;22.10;99.90;;;;;;5034755;28;20036;-50
2023/08/07 06:39:31;;;;;;;2.25;0.63;;;22.20;99.90;;;;;;5039363;28;20021;-54
2023/08/07 06:41:57;;;;;;;0.20;0.13;;;22.20;99.90;;;;;;5032758;28;20050;-50
2023/08/07 06:44:22;;;;;;;0.95;0.32;;;22.20;99.90;;;;;;5037913;28;20391;-50
2023/08/07 06:46:48;;;;;;;1.50;0.30;;;22.20;99.90;;;;;;5033956;28;20092;-54
2023/08/07 06:49:14;;;;;;;2.28;0.68;;;22.30;99.90;;;;;;5035806;28;20025;-52
2023/08/07 06:51:39;;;;;;;2.58;0.38;;;22.40;99.90;;;;;;5036468;28;20024;-50
2023/08/07 06:54:05;;;;;;;1.65;0.32;;;22.40;99.90;;;;;;5032471;28;20037;-55
2023/08/07 06:56:30;;;;;;;2.88;0.82;;;22.40;99.90;;;;;;5041138;28;20017;-53
2023/08/07 06:58:56;;;;;;;3.97;0.98;;;22.40;99.90;;;;;;5033025;28;20132;-55
2023/08/07 07:01:22;;;;;;;2.50;0.55;;;22.50;99.90;;;;;;5035678;28;20075;-53
2023/08/07 07:03:52;;;;;;;1.20;0.40;;;22.50;99.90;;;;;;5035358;28;20072;-50
2023/08/07 07:06:18;;;;;;;0.57;0.40;;;22.50;99.90;;;;;;5037977;28;20029;-50
2023/08/07 07:08:44;;;;;;;2.55;0.28;;;22.70;99.90;;;;;;5034310;28;20041;-49
2023/08/07 07:11:09;;;;;;;4.03;0.40;;;22.70;99.90;;;;;;5037894;28;20529;-49
2023/08/07 07:13:35;;;;;;;3.33;0.30;;;22.70;99.90;;;;;;5036750;28;20108;-49
2023/08/07 07:16:01;;;;;;;2.65;0.95;;;22.80;99.90;;;;;;5029818;28;20016;-48
2023/08/07 07:18:27;;;;;;;1.83;0.30;;;22.90;99.90;;;;;;5036734;28;20078;-51
2023/08/07 07:21:02;;;;;;;0.73;0.50;;;22.90;99.90;;;;;;5025589;28;20041;-60
2023/08/07 07:23:28;;;;;;;1.10;0.30;;;22.80;99.90;;;;;;5034766;28;20040;-59
2023/08/07 07:25:54;;;;;;;0.40;0.20;;;22.80;99.90;;;;;;5037367;28;20049;-55
2023/08/07 07:28:20;;;;;;;0.63;0.20;;;22.80;99.90;;;;;;5037852;28;20029;-51
2023/08/07 07:30:46;;;;;;;0.20;0.20;;;22.80;99.90;;;;;;5034161;28;20120;-49
2023/08/07 07:33:13;;;;;;;2.72;0.20;;;22.90;99.90;;;;;;5035761;28;20507;-55
2023/08/07 07:35:39;;;;;;;0.65;0.40;;;22.90;99.90;;;;;;5027257;28;20057;-52
2023/08/07 07:38:06;;;;;;;2.25;0.60;;;23.00;99.90;;;;;;5034543;28;20056;-53
2023/08/07 07:40:32;;;;;;;1.20;0.30;;;23.20;99.90;;;;;;5031886;28;20606;-52
2023/08/07 07:42:57;;;;;;;0.95;0.50;;;23.10;99.90;;;;;;5036712;28;20109;-51
2023/08/07 07:45:23;;;;;;;1.88;0.52;;;23.10;99.90;;;;;;5030827;28;20075;-51
2023/08/07 07:47:49;;;;;;;3.47;0.60;;;23.10;99.90;;;;;;5035118;28;20052;-50
2023/08/07 07:50:14;;;;;;;2.58;0.65;;;23.10;99.90;;;;;;5030034;28;20167;-55
2023/08/07 07:52:40;;;;;;;1.35;0.20;;;23.10;99.90;;;;;;5034605;28;20040;-53
2023/08/07 07:55:07;;;;;;;0.50;0.35;;;23.10;99.90;;;;;;5037331;28;20088;-53
2023/08/07 07:57:33;;;;;;;2.25;0.30;;;23.20;99.90;;;;;;5042656;28;20068;-54
2023/08/07 07:59:59;;;;;;;2.72;0.50;;;23.30;99.90;;;;;;5038136;28;20080;-55
2023/08/07 08:02:25;;;;;;;2.20;0.20;;;23.20;99.90;;;;;;5035440;28;20042;-52
2023/08/07 08:04:53;;;;;;;2.15;0.28;;;23.30;99.90;;;;;;5036625;28;20026;-54
2023/08/07 08:07:19;;;;;;;2.97;0.45;;;23.40;99.90;;;;;;5035143;28;20163;-66
2023/08/07 08:09:44;;;;;;;1.50;0.40;;;23.40;99.90;;;;;;5029571;28;20054;-83
2023/08/07 08:12:11;;;;;;;0.75;0.20;;;23.40;99.90;;;;;;5027957;28;20036;-68
2023/08/07 08:14:36;;;;;;;2.10;0.30;;;23.40;99.90;;;;;;5029932;28;20499;-76
2023/08/07 08:17:02;;;;;;;0.25;0.20;;;23.50;99.90;;;;;;5034451;28;20027;-72
2023/08/07 08:19:28;;;;;;;0.32;0.10;;;23.50;99.90;;;;;;5036799;28;20033;-74
2023/08/07 08:21:53;;;;;;;2.22;0.22;;;23.50;99.90;;;;;;5038019;28;20022;-71
2023/08/07 08:24:19;;;;;;;1.60;0.30;;;23.60;99.90;;;;;;5038621;28;20029;-74
2023/08/07 08:26:45;;;;;;;1.25;0.20;;;23.60;99.90;;;;;;5039272;28;20022;-68
2023/08/07 08:29:14;;;;;;;2.55;0.40;;;23.60;99.90;;;;;;5048577;28;20594;-66
2023/08/07 08:31:40;;;;;;;4.03;0.50;;;23.60;99.90;;;;;;5053016;28;20024;-64
2023/08/07 08:34:06;;;;;;;3.03;0.70;;;23.60;99.90;;;;;;5041494;28;20029;-70
2023/08/07 08:36:31;;;;;;;1.45;0.20;;;23.70;99.90;;;;;;5046789;28;20049;-74
2023/08/07 08:38:57;;;;;;;3.22;0.30;;;23.70;99.90;;;;;;5034887;28;20793;-61
2023/08/07 08:41:24;;;;;;;2.70;0.47;;;23.80;99.90;;;;;;5036109;28;20051;-62
2023/08/07 08:43:52;;;;;;;2.72;0.32;;;23.80;99.90;;;;;;5031973;28;20080;-57
2023/08/07 08:46:19;;;;;;;4.88;0.90;;;23.90;99.90;;;;;;5035843;28;20490;-62
2023/08/07 08:48:50;;;;;;;2.92;0.68;;;23.80;99.90;;;;;;5036020;28;20086;-60
2023/08/07 08:51:17;;;;;;;2.50;0.35;;;23.90;99.90;;;;;;5035238;28;20017;-71
2023/08/07 08:53:43;;;;;;;4.53;1.98;;;23.90;99.90;;;;;;5035993;28;20390;-71
2023/08/07 08:56:09;;;;;;;3.72;2.10;;;23.90;99.90;;;;;;5032726;28;20376;-62
2023/08/07 08:58:35;;;;;;;3.03;1.88;;;24.10;99.90;;;;;;5032415;28;20104;-68
2023/08/07 09:01:01;;;;;;;3.13;2.42;;;24.10;99.90;;;;;;5034956;28;20025;-63
2023/08/07 09:03:27;;;;;;;4.18;1.92;;;24.10;99.90;;;;;;5034685;28;20116;-63
2023/08/07 09:05:59;;;;;;;1.10;1.10;;;24.20;99.90;;;;;;5034325;28;20036;-63
2023/08/07 09:08:29;;;;;;;0.95;0.47;;;24.10;99.90;;;;;;5043733;28;20474;-62
2023/08/07 09:10:55;;;;;;;2.50;0.68;;;24.20;99.90;;;;;;5035274;28;20502;-64
2023/08/07 09:13:24;;;;;;;2.38;0.60;;;24.20;99.90;;;;;;5035728;28;20335;-61
2023/08/07 09:15:51;;;;;;;3.05;0.47;;;24.30;99.90;;;;;;5036214;28;20465;-67
2023/08/07 09:18:18;;;;;;;6.13;0.60;;;24.30;99.90;;;;;;5030509;28;20051;-64
2023/08/07 09:20:43;;;;;;;3.13;0.32;;;24.50;99.90;;;;;;5034228;28;20072;-65
2023/08/07 09:23:09;;;;;;;4.88;0.70;;;24.50;99.90;;;;;;5035349;28;20034;-65
2023/08/07 09:25:36;;;;;;;4.57;0.52;;;24.60;99.90;;;;;;5034987;28;20100;-65
2023/08/07 09:28:06;;;;;;;1.35;0.40;;;24.60;99.90;;;;;;5033588;28;20066;-66
2023/08/07 09:30:34;;;;;;;3.28;0.70;;;24.70;99.90;;;;;;5033898;28;20021;-63
2023/08/07 09:33:00;;;;;;;1.95;0.60;;;24.70;99.90;;;;;;5034033;28;20048;-62
2023/08/07 09:35:27;;;;;;;2.75;0.40;;;24.70;99.90;;;;;;5041723;28;20021;-62
2023/08/07 09:37:53;;;;;;;1.52;0.40;;;24.70;99.90;;;;;;5035182;28;20106;-62
2023/08/07 09:40:19;;;;;;;0.52;0.50;;;24.80;99.90;;;;;;5035797;28;20497;-63
2023/08/07 09:42:49;;;;;;;0.57;0.30;;;24.80;99.90;;;;;;5034461;28;20395;-61
2023/08/07 09:45:26;;;;;;;1.45;0.43;;;24.80;99.90;;;;;;5034617;28;20114;-62
2023/08/07 09:48:06;;;;;;;1.17;0.50;;;24.80;99.90;;;;;;5030867;28;20034;-62
2023/08/07 09:50:33;;;;;;;1.55;0.30;;;24.80;99.90;;;;;;5033292;28;20021;-62
2023/08/07 09:52:58;;;;;;;0.85;0.30;;;24.90;99.90;;;;;;5035029;28;20025;-61
2023/08/07 09:55:25;;;;;;;2.08;0.38;;;25.00;99.90;;;;;;5034685;28;20168;-61
2023/08/07 09:57:51;;;;;;;0.60;0.35;;;25.00;99.90;;;;;;5031258;28;20379;-66
2023/08/07 10:00:21;;;;;;;0.75;0.30;;;25.00;99.90;;;;;;5032547;28;20045;-70
2023/08/07 10:02:50;;;;;;;0.30;0.30;;;25.00;99.90;;;;;;5037760;28;20037;-69
2023/08/07 10:05:17;;;;;;;0.52;0.30;;;25.20;99.90;;;;;;5029461;28;20025;-68
2023/08/07 10:07:43;;;;;;;0.60;0.57;;;25.20;99.90;;;;;;5034119;28;20105;-73
2023/08/07 10:10:10;;;;;;;0.43;0.30;;;25.20;99.90;;;;;;5036598;28;20450;-69
2023/08/07 10:12:37;;;;;;;1.58;0.30;;;25.20;99.90;;;;;;5036636;28;20046;-65
2023/08/07 10:15:03;;;;;;;1.85;0.40;;;25.30;99.90;;;;;;5042037;28;20032;-65
2023/08/07 10:17:29;;;;;;;0.28;0.28;;;25.30;99.90;;;;;;5038955;28;20029;-61
2023/08/07 10:19:57;;;;;;;1.55;0.25;;;25.40;99.90;;;;;;5039139;28;20025;-65
2023/08/07 10:22:29;;;;;;;0.10;0.10;;;25.40;99.90;;;;;;5033485;28;20117;-71
2023/08/07 10:24:57;;;;;;;1.48;0.80;;;25.50;99.90;;;;;;5033518;28;20025;-67
2023/08/07 10:27:37;;;;;;;3.08;0.63;;;25.50;99.90;;;;;;5034042;28;20021;-67
2023/08/07 10:30:07;;;;;;;1.02;0.28;;;25.60;99.90;;;;;;5032531;28;20025;-72
2023/08/07 10:32:34;;;;;;;1.60;0.55;;;25.80;99.90;;;;;;5037779;28;20383;-66
2023/08/07 10:35:04;;;;;;;0.90;0.43;;;25.80;99.90;;;;;;5033696;28;20048;-64
2023/08/07 10:37:41;;;;;;;1.20;0.30;;;25.90;99.90;;;;;;5033771;28;20028;-63
2023/08/07 10:40:09;;;;;;;0.45;0.40;;;25.80;99.90;;;;;;5036051;28;20029;-62
2023/08/07 10:42:59;;;;;;;1.48;0.50;;;25.80;99.90;;;;;;5044394;28;20037;-62
2023/08/07 10:45:27;;;;;;;3.08;1.05;;;25.90;99.90;;;;;;5029955;28;20021;-63
2023/08/07 10:48:04;;;;;;;0.20;0.20;;;26.00;99.90;;;;;;5029515;28;20026;-62
2023/08/07 10:50:35;;;;;;;0.50;0.50;;;26.00;99.90;;;;;;5033403;28;20024;-60
2023/08/07 10:53:04;;;;;;;1.90;0.88;;;26.20;99.90;;;;;;5036448;28;20466;-66
2023/08/07 10:55:48;;;;;;;1.35;0.40;;;26.20;99.90;;;;;;5033757;28;20032;-62
2023/08/07 10:58:29;;;;;;;1.95;1.15;;;26.30;99.90;;;;;;5033529;28;20422;-64
2023/08/07 11:01:20;;;;;;;0.57;0.57;;;26.40;99.90;;;;;;5033445;28;20443;-65
2023/08/07 11:03:56;;;;;;;1.25;0.73;;;26.40;99.90;;;;;;5033141;28;20037;-65
2023/08/07 11:06:31;;;;;;;0.73;0.65;;;26.50;99.90;;;;;;5037943;28;20045;-62
2023/08/07 11:08:57;;;;;;;1.75;0.50;;;26.70;99.90;;;;;;5035975;28;20026;-62
2023/08/07 11:11:23;;;;;;;1.63;0.90;;;26.70;99.90;;;;;;5032145;28;20025;-61
2023/08/07 11:13:49;;;;;;;1.50;0.57;;;26.80;99.90;;;;;;5031568;28;20080;-61
2023/08/07 11:16:15;;;;;;;1.77;1.25;;;26.80;99.90;;;;;;5039032;28;20021;-62
2023/08/07 11:18:42;;;;;;;1.25;0.40;;;26.80;99.90;;;;;;5029567;28;20368;-62
2023/08/07 11:21:10;;;;;;;1.40;0.65;;;27.00;99.90;;;;;;5032824;28;20025;-60
2023/08/07 11:23:37;;;;;;;2.00;0.40;;;27.10;99.90;;;;;;5032661;28;20045;-71
2023/08/07 11:26:03;;;;;;;4.72;1.02;;;27.20;99.90;;;;;;5031539;28;20495;-71
2023/08/07 11:28:29;;;;;;;1.17;0.68;;;27.20;99.90;;;;;;5029741;28;20067;-70
2023/08/07 11:30:56;;;;;;;0.40;0.40;;;27.40;99.90;;;;;;5032493;28;20060;-71
2023/08/07 11:33:25;;;;;;;2.45;0.55;;;27.40;99.90;;;;;;5032953;28;20053;-70
2023/08/07 11:35:51;;;;;;;0.68;0.47;;;27.60;99.90;;;;;;5032746;28;20475;-71
2023/08/07 11:38:39;;;;;;;2.28;0.50;;;27.60;99.90;;;;;;5036339;28;20056;-71
2023/08/07 11:41:16;;;;;;;1.77;0.40;;;27.80;99.90;;;;;;5032662;28;20025;-71
2023/08/07 11:43:42;;;;;;;1.98;0.55;;;28.00;99.90;;;;;;5032716;28;20038;-71
2023/08/07 11:46:10;;;;;;;0.55;0.40;;;28.10;99.90;;;;;;5032661;28;20038;-70
2023/08/07 11:48:37;;;;;;;5.22;0.47;;;;;;;;;;5032984;28;20041;-71
2023/08/07 11:51:03;;;;;;;0.55;0.50;;;;;;;;;;5032705;28;20476;-70
2023/08/07 11:53:30;;;;;;;1.90;0.63;;;;;;;;;;5032771;28;20108;-71
2023/08/07 11:55:58;;;;;;;1.15;0.40;;;;;;;;;;5032790;28;20101;-71
2023/08/07 11:58:36;;;;;;;3.78;0.85;;;;;;;;;;5032558;28;20045;-71
2023/08/07 12:01:12;;;;;;;1.77;0.70;;;38.90;99.90;;;;;;5034305;28;20113;-72
2023/08/07 12:03:39;;;;;;;0.80;0.80;;;;;;;;;;5032681;28;20112;-70
2023/08/07 12:06:06;;;;;;;1.48;0.82;;;;;;;;;;5043342;28;20074;-71
2023/08/07 12:08:42;;;;;;;1.00;1.00;;;;;;;;;;5032662;28;20034;-71
2023/08/07 12:11:09;;;;;;;1.60;1.10;;;;;;;;;;5032876;28;20021;-71
2023/08/07 12:13:40;;;;;;;3.78;1.30;;;38.20;99.90;;;;;;5032546;28;20049;-72
2023/08/07 12:16:06;;;;;;;2.92;1.10;;;43.90;99.90;;;;;;5035704;28;20070;-71
2023/08/07 12:18:32;;;;;;;1.20;1.20;;;42.80;99.90;;;;;;5027585;28;20467;-71
2023/08/07 12:21:02;;;;;;;1.27;1.27;;;;;;;;;;5032491;28;20544;-70
2023/08/07 12:23:28;;;;;;;3.65;1.33;;;39.50;99.90;;;;;;5030177;28;20053;-62
2023/08/07 12:25:54;;;;;;;1.55;1.40;;;38.00;99.90;;;;;;5031814;28;20104;-58
2023/08/07 12:28:20;;;;;;;2.28;1.40;;;38.40;99.90;;;;;;5039268;28;20038;-61
2023/08/07 12:30:47;;;;;;;1.50;1.40;;;38.70;99.90;;;;;;5032404;28;20103;-65
2023/08/07 12:33:13;;;;;;;2.30;1.80;;;38.20;99.90;;;;;;5027399;28;20391;-67
2023/08/07 12:35:40;;;;;;;1.50;1.40;;;39.10;99.90;;;;;;5036300;28;20502;-66
2023/08/07 12:38:06;;;;;;;1.50;1.40;;;39.90;99.90;;;;;;5035614;28;20163;-68
2023/08/07 12:40:32;;;;;;;1.80;1.50;;;39.20;99.90;;;;;;5033129;28;20518;-68
2023/08/07 12:43:01;;;;;;;1.40;1.40;;;;;;;;;;5039774;28;20115;-68
2023/08/07 12:45:27;;;;;;;1.52;1.42;;;;;;;;;;5038000;28;20482;-71
2023/08/07 12:47:53;;;;;;;1.60;1.48;;;;;;;;;;5041512;28;20033;-73
2023/08/07 12:50:23;;;;;;;2.25;1.35;;;;;;;;;;5041523;28;20030;-72
2023/08/07 12:52:49;;;;;;;78.25;9.45;;;;;;;;;;5035814;28;20037;-73
2023/08/07 12:55:15;;;;;;;6.00;1.30;;;;;;;;;;5033621;28;20026;-62
2023/08/07 12:57:42;;;;;;;6.55;1.63;;;;;;;;;;5035169;28;20397;-60